createdAt,value
2019-01-12T00:01:19.007Z,31.07
2019-01-12T00:06:24.513Z,32.20
2019-01-12T00:11:29.987Z,31.33
2019-01-12T00:16:35.014Z,32.07
2019-01-12T00:21:40.220Z,32.37
2019-01-12T00:26:45.262Z,37.67
2019-01-12T00:31:50.343Z,36.53
2019-01-12T00:36:55.433Z,33.37
2019-01-12T00:42:00.402Z,36.00
2019-01-12T00:47:05.472Z,31.30
2019-01-12T00:52:10.534Z,31.97
2019-01-12T00:57:15.516Z,33.77
2019-01-12T01:02:20.550Z,31.50
2019-01-12T01:07:25.648Z,34.37
2019-01-12T01:12:30.702Z,35.93
2019-01-12T01:17:36.092Z,39.93
2019-01-12T01:22:41.143Z,38.00
2019-01-12T01:27:46.606Z,32.77
2019-01-12T01:32:51.665Z,35.00
2019-01-12T01:37:56.728Z,36.40
2019-01-12T01:43:01.726Z,36.13
2019-01-12T01:48:06.704Z,40.20
2019-01-12T01:53:11.797Z,37.47
2019-01-12T01:58:19.028Z,39.40
2019-01-12T02:03:28.087Z,43.17
2019-01-12T02:08:33.504Z,36.73
2019-01-12T02:13:40.846Z,36.00
2019-01-12T02:18:47.014Z,39.53
2019-01-12T02:23:53.572Z,32.50
2019-01-12T02:28:58.860Z,40.00
2019-01-12T02:34:05.802Z,37.50
2019-01-12T02:39:10.900Z,36.50
2019-01-12T02:44:15.944Z,36.87
2019-01-12T02:49:20.959Z,33.67
2019-01-12T02:54:26.178Z,33.17
2019-01-12T02:59:32.552Z,35.30
2019-01-12T03:04:37.647Z,35.53
2019-01-12T03:09:42.664Z,38.27
2019-01-12T03:14:47.827Z,36.27
2019-01-12T03:19:53.499Z,39.20
2019-01-12T03:25:01.511Z,42.50
2019-01-12T03:30:09.710Z,39.37
2019-01-12T03:35:15.691Z,47.43
2019-01-12T03:40:23.973Z,50.97
2019-01-12T03:45:29.144Z,41.67
2019-01-12T03:50:34.283Z,41.93
2019-01-12T03:55:39.303Z,44.33
2019-01-12T04:00:44.345Z,39.80
2019-01-12T04:05:49.361Z,39.20
2019-01-12T04:10:54.419Z,41.97
2019-01-12T04:15:59.620Z,43.43
2019-01-12T04:21:05.008Z,43.40
2019-01-12T04:26:10.076Z,43.57
2019-01-12T04:31:15.595Z,52.57
2019-01-12T04:36:22.744Z,41.20
2019-01-12T04:41:30.624Z,47.47
2019-01-12T04:46:38.779Z,41.43
2019-01-12T04:51:44.094Z,41.77
2019-01-12T04:56:49.055Z,42.03
2019-01-12T05:01:54.399Z,46.43
2019-01-12T05:06:59.397Z,42.13
2019-01-12T05:12:04.468Z,38.27
2019-01-12T05:17:09.470Z,46.43
2019-01-12T05:22:14.784Z,44.83
2019-01-12T05:27:19.832Z,41.80
2019-01-12T05:32:24.931Z,41.23
2019-01-12T05:37:29.916Z,39.33
2019-01-12T05:42:35.387Z,44.83
2019-01-12T05:47:40.446Z,45.17
2019-01-12T05:52:48.157Z,43.30
2019-01-12T05:57:53.738Z,43.73
2019-01-12T06:02:59.099Z,43.13
2019-01-12T06:08:04.281Z,41.20
2019-01-12T06:13:09.339Z,46.37
2019-01-12T06:18:14.695Z,41.00
2019-01-12T06:23:19.691Z,44.77
2019-01-12T06:28:24.982Z,41.30
2019-01-12T06:33:29.955Z,41.27
2019-01-12T06:38:34.943Z,42.53
2019-01-12T06:43:39.959Z,41.17
2019-01-12T06:48:45.001Z,37.60
2019-01-12T06:53:50.023Z,36.83
2019-01-12T06:58:55.041Z,40.77
2019-01-12T07:04:00.190Z,34.40
2019-01-12T07:09:08.497Z,39.60
2019-01-12T07:14:13.523Z,43.57
2019-01-12T07:19:18.575Z,41.67
2019-01-12T07:24:23.673Z,41.90
2019-01-12T07:29:29.415Z,43.13
2019-01-12T07:34:34.439Z,45.93
2019-01-12T07:39:39.579Z,38.50
2019-01-12T07:44:44.657Z,44.97
2019-01-12T07:49:50.059Z,38.17
2019-01-12T07:54:55.186Z,37.50
2019-01-12T08:00:02.061Z,38.13
2019-01-12T08:05:08.629Z,37.70
2019-01-12T08:10:16.875Z,36.53
2019-01-12T08:15:21.923Z,37.60
2019-01-12T08:20:27.022Z,36.40
2019-01-12T08:25:32.117Z,33.53
2019-01-12T08:30:37.183Z,36.13
2019-01-12T08:35:43.267Z,33.40
2019-01-12T08:40:50.387Z,37.33
2019-01-12T08:45:55.319Z,33.97
2019-01-12T08:51:00.342Z,33.67
2019-01-12T08:56:05.651Z,30.47
2019-01-12T09:01:11.809Z,32.33
2019-01-12T09:06:16.912Z,33.37
2019-01-12T09:11:21.995Z,35.23
2019-01-12T09:16:27.022Z,36.17
2019-01-12T09:21:32.070Z,33.23
2019-01-12T09:26:37.201Z,29.00
2019-01-12T09:31:42.313Z,34.37
2019-01-12T09:36:47.691Z,32.13
2019-01-12T09:41:53.525Z,28.87
2019-01-12T09:46:58.605Z,29.53
2019-01-12T09:52:03.993Z,25.30
2019-01-12T09:57:09.001Z,28.93
2019-01-12T10:02:14.027Z,29.53
2019-01-12T10:07:19.103Z,36.43
2019-01-12T10:12:24.278Z,22.53
2019-01-12T10:17:29.333Z,24.90
2019-01-12T10:22:34.447Z,27.23
2019-01-12T10:27:39.522Z,26.30
2019-01-12T10:32:45.155Z,27.67
2019-01-12T10:37:53.896Z,25.13
2019-01-12T10:42:59.167Z,25.23
2019-01-12T10:48:04.299Z,24.23
2019-01-12T10:53:09.903Z,24.27
2019-01-12T10:58:15.188Z,22.53
2019-01-12T11:03:20.381Z,21.33
2019-01-12T11:08:25.663Z,22.00
2019-01-12T11:13:31.345Z,20.33
2019-01-12T11:18:36.575Z,23.33
2019-01-12T11:23:41.887Z,24.27
2019-01-12T11:28:46.977Z,22.50
2019-01-12T11:33:52.032Z,23.63
2019-01-12T11:38:57.256Z,26.27
2019-01-12T11:44:02.465Z,23.30
2019-01-12T11:49:07.610Z,18.77
2019-01-12T11:54:12.805Z,22.07
2019-01-12T11:59:17.912Z,29.87
2019-01-12T12:04:24.101Z,22.07
2019-01-12T12:09:29.233Z,23.27
2019-01-12T12:14:34.625Z,24.63
2019-01-12T12:19:41.329Z,25.33
2019-01-12T12:24:51.015Z,24.90
2019-01-12T12:29:56.727Z,26.50
2019-01-12T12:35:02.534Z,24.87
2019-01-12T12:40:10.924Z,25.20
2019-01-12T12:45:19.868Z,24.80
2019-01-12T12:50:26.816Z,23.80
2019-01-12T12:55:32.007Z,30.13
2019-01-12T13:00:37.504Z,27.20
2019-01-12T13:05:42.841Z,29.90
2019-01-12T13:10:47.921Z,29.77
2019-01-12T13:15:52.937Z,30.50
2019-01-12T13:20:57.915Z,27.97
2019-01-12T13:26:03.237Z,28.37
2019-01-12T13:31:08.478Z,26.33
2019-01-12T13:36:13.746Z,27.60
2019-01-12T13:41:18.971Z,25.90
2019-01-12T13:46:24.657Z,24.03
2019-01-12T13:51:33.425Z,25.53
2019-01-12T13:56:39.075Z,25.53
2019-01-12T14:01:44.851Z,29.87
2019-01-12T14:06:50.501Z,28.50
2019-01-12T14:11:58.493Z,31.93
2019-01-12T14:17:06.786Z,34.47
2019-01-12T14:22:12.941Z,33.90
2019-01-12T14:27:18.881Z,34.83
2019-01-12T14:32:24.330Z,37.77
2019-01-12T14:37:30.787Z,36.60
2019-01-12T14:42:37.262Z,37.57
2019-01-12T14:47:46.006Z,30.20
2019-01-12T14:52:53.428Z,29.70
2019-01-12T14:58:08.709Z,26.17
2019-01-12T15:03:13.919Z,24.80
2019-01-12T15:08:27.965Z,27.33
2019-01-12T15:13:34.468Z,29.53
2019-01-12T15:18:40.940Z,29.53
2019-01-12T15:23:49.344Z,31.23
2019-01-12T15:29:00.907Z,29.27
2019-01-12T15:34:06.110Z,27.00
2019-01-12T15:39:16.608Z,34.17
2019-01-12T15:44:25.799Z,29.10
2019-01-12T15:49:38.347Z,28.80
2019-01-12T15:54:47.459Z,30.93
2019-01-12T15:59:57.940Z,34.50
2019-01-12T16:05:07.663Z,31.17
2019-01-12T16:10:49.201Z,29.27
2019-01-12T16:16:01.344Z,30.40
2019-01-12T16:21:12.984Z,29.67
2019-01-12T16:26:19.435Z,29.47
2019-01-12T16:31:30.624Z,26.13
2019-01-12T16:36:39.741Z,25.37
2019-01-12T16:41:47.118Z,26.77
2019-01-12T16:46:53.268Z,25.37
2019-01-12T16:52:02.785Z,31.23
2019-01-12T16:57:07.895Z,29.03
2019-01-12T17:02:14.801Z,26.10
2019-01-12T17:07:28.905Z,27.43
2019-01-12T17:12:44.307Z,28.10
2019-01-12T17:18:04.251Z,23.50
2019-01-12T17:23:15.787Z,23.50
2019-01-12T17:28:24.089Z,27.20
2019-01-12T17:33:33.716Z,24.77
2019-01-12T17:38:39.967Z,28.17
2019-01-12T17:43:45.572Z,27.53
2019-01-12T17:48:51.315Z,27.63
2019-01-12T17:53:58.133Z,27.57
2019-01-12T17:59:04.137Z,31.90
2019-01-12T18:04:13.875Z,31.67
2019-01-12T18:09:34.260Z,32.20
2019-01-12T18:14:40.914Z,30.20
2019-01-12T18:19:46.381Z,26.30
2019-01-12T18:24:51.985Z,25.97
2019-01-12T18:30:07.965Z,29.93
2019-01-12T18:35:13.371Z,31.90
2019-01-12T18:40:19.874Z,31.17
2019-01-12T18:45:25.423Z,30.43
2019-01-12T18:50:31.738Z,32.93
2019-01-12T18:55:38.441Z,41.40
2019-01-12T19:00:44.002Z,29.53
2019-01-12T19:06:26.330Z,30.97
2019-01-12T19:18:15.637Z,29.13
2019-01-12T19:23:35.978Z,26.83
2019-01-12T19:28:56.053Z,28.93
2019-01-12T19:34:10.624Z,34.90
2019-01-12T19:39:22.529Z,32.33
2019-01-12T19:44:29.724Z,31.20
2019-01-12T19:49:35.620Z,34.73
2019-01-12T19:54:40.938Z,39.50
2019-01-12T19:59:46.197Z,33.23
2019-01-12T20:04:51.565Z,33.53
2019-01-12T20:09:59.263Z,33.73
2019-01-12T20:15:10.367Z,35.50
2019-01-12T20:20:21.116Z,33.73
2019-01-12T20:25:31.938Z,36.43
2019-01-12T20:31:17.730Z,33.43
2019-01-12T20:37:13.570Z,38.43
2019-01-12T20:43:03.277Z,36.47
2019-01-12T20:48:38.732Z,35.20
2019-01-12T20:54:16.344Z,37.37
2019-01-12T21:00:02.278Z,34.60
2019-01-12T21:05:58.570Z,39.93
2019-01-12T21:11:51.156Z,34.27
2019-01-12T21:17:10.483Z,35.30
2019-01-12T21:22:20.417Z,36.17
2019-01-12T21:27:40.204Z,51.60
2019-01-12T21:32:50.724Z,35.37
2019-01-12T21:38:08.340Z,34.23
2019-01-12T21:43:15.520Z,33.60
2019-01-12T21:48:22.062Z,34.83
2019-01-12T21:53:27.465Z,30.83
2019-01-12T21:58:34.648Z,33.63
2019-01-12T22:03:40.070Z,31.40
2019-01-12T22:08:51.251Z,30.43
2019-01-12T22:13:57.029Z,35.33
2019-01-12T22:19:02.559Z,29.70
2019-01-12T22:24:07.944Z,28.53
2019-01-12T22:29:16.058Z,26.57
2019-01-12T22:34:24.742Z,25.57
2019-01-12T22:39:38.388Z,29.67
2019-01-12T22:44:44.651Z,28.93
2019-01-12T22:49:49.886Z,30.80
2019-01-12T22:54:57.937Z,32.47
2019-01-12T23:00:07.384Z,29.93
2019-01-12T23:05:14.016Z,31.43
2019-01-12T23:10:20.048Z,25.33
2019-01-12T23:15:26.455Z,33.37
2019-01-12T23:20:33.988Z,29.20
2019-01-12T23:25:41.005Z,28.10
2019-01-12T23:30:46.164Z,28.70
2019-01-12T23:35:53.742Z,22.93
2019-01-12T23:40:58.970Z,24.97
2019-01-12T23:46:06.940Z,29.63
2019-01-12T23:51:13.492Z,27.23
2019-01-12T23:56:28.868Z,29.63
